Latest Weather Observations for Port Fairy

IDV60801

Issued at 8:02 pm EST Friday 27 May 2016 (issued every 30 minutes, with the page automatically refreshed every 10 minutes)

About weather observations | Map of weather stations | Latest weather observations for VIC | Other Formats
Station Details ID: 090175 Name: PORT FAIRY AWS Lat: -38.39 Lon: 142.23 Height: 10.0 m
Data from the previous 72 hours. | See also: Recent months at Port Fairy
Date/Time
EST
Temp
°C
App
Temp
°C
Dew
Point
Rel
Hum
%
Delta-T
°C
Wind Press
QNH
hPa
Press
MSL
hPa
Rain
since 9 am
mm
Dir
 
Spd
km/h
Gust
km/h
Spd
kts
Gust
kts
27/08:00pm 11.7 8.0 9.3 85 1.2 E 19 26 10 14 1007.3 1007.3 0.4
27/07:30pm 12.2 9.0 9.8 85 1.2 E 17 26 9 14 1007.0 1007.0 0.2
27/07:00pm 12.7 9.5 8.6 76 2.0 E 15 22 8 12 1006.6 1006.6 0.2
27/06:30pm 12.8 9.6 8.5 75 2.1 E 15 22 8 12 1006.4 1006.4 0.2
27/06:00pm 13.0 10.0 7.7 70 2.6 E 13 20 7 11 1006.1 1006.1 0.2
27/05:30pm 12.7 9.6 7.4 70 2.6 E 13 19 7 10 1005.9 1005.9 0.2
27/05:00pm 12.7 10.0 7.2 69 2.7 ENE 11 17 6 9 1005.6 1005.6 0.2
27/04:30pm 12.8 10.4 7.0 68 2.8 E 9 20 5 11 1005.4 1005.4 0.2
27/04:00pm 13.3 11.0 7.5 68 2.8 E 9 13 5 7 1005.5 1005.5 0.2
27/03:30pm 13.4 11.1 7.6 68 2.8 E 9 15 5 8 1005.3 1005.3 0.2
27/03:00pm 13.4 11.2 8.0 70 2.7 ENE 9 13 5 7 1005.3 1005.3 0.2
27/02:30pm 13.2 11.6 8.7 74 2.3 ENE 7 13 4 7 1005.4 1005.4 0.2
27/02:00pm 13.0 11.5 9.3 78 1.9 E 7 11 4 6 1005.5 1005.5 0.2
27/01:30pm 13.3 11.8 9.0 75 2.2 ENE 7 13 4 7 1005.6 1005.6 0.2
27/01:00pm 13.9 12.4 9.1 73 2.4 NE 7 13 4 7 1005.9 1005.9 0.2
27/12:30pm 12.9 11.4 8.6 75 2.1 NNE 6 9 3 5 1006.0 1006.0 0.2
27/12:00pm 14.5 12.8 9.7 73 2.5 N 9 15 5 8 1006.5 1006.5 0.2
27/11:30am 12.8 11.3 10.5 86 1.2 N 9 17 5 9 1007.3 1007.3 0.2
27/11:00am 11.8 10.3 10.7 93 0.6 N 9 19 5 10 1007.6 1007.6 0.2
27/10:30am 11.0 9.5 10.7 98 0.2 N 9 13 5 7 1007.8 1007.8 0.2
27/10:00am 9.9 8.2 9.8 99 0.1 NNW 9 13 5 7 1007.9 1007.9 0.2
27/09:30am 8.7 6.3 8.7 100 0.0 NNW 11 17 6 9 1008.0 1008.0 0.2
27/09:00am 7.9 5.7 7.9 100 0.0 N 9 13 5 7 1008.1 1008.1 0.4
27/08:30am 6.7 4.2 6.7 100 0.0 NNW 9 13 5 7 1007.9 1007.9 0.4
27/08:00am 5.8 3.5 5.8 100 0.0 NNW 7 11 4 6 1007.8 1007.8 0.4
27/07:30am 5.7 3.4 5.7 100 0.0 NNW 7 9 4 5 1007.6 1007.6 0.4
27/07:00am 5.9 3.6 5.9 100 0.0 NNW 7 13 4 7 1007.4 1007.4 0.4
27/06:30am 6.1 3.9 6.1 100 0.0 NNW 7 11 4 6 1007.5 1007.5 0.4
27/06:00am 6.6 4.1 6.6 100 0.0 NNW 9 13 5 7 1007.6 1007.6 0.4
27/05:30am 6.6 4.1 6.6 100 0.0 NW 9 11 5 6 1007.5 1007.5 0.4
27/05:00am 7.0 4.6 7.0 100 0.0 NNW 9 13 5 7 1007.5 1007.5 0.4
27/04:30am 7.5 5.6 7.5 100 0.0 NW 7 11 4 6 1007.6 1007.6 0.4
27/04:00am 7.4 5.1 7.4 100 0.0 NW 9 13 5 7 1007.5 1007.5 0.4
27/03:30am 7.8 5.6 7.8 100 0.0 NNW 9 15 5 8 1007.6 1007.6 0.4
27/03:00am 8.0 5.8 8.0 100 0.0 NW 9 19 5 10 1007.8 1007.8 0.4
27/02:30am 7.7 5.5 7.7 100 0.0 NW 9 15 5 8 1007.8 1007.8 0.4
27/02:00am 8.0 5.5 8.0 100 0.0 NW 11 17 6 9 1007.7 1007.7 0.4
27/01:30am 8.3 6.2 8.3 100 0.0 NW 9 13 5 7 1007.7 1007.7 0.4
27/01:00am 8.3 6.6 8.3 100 0.0 NW 7 11 4 6 1007.9 1007.9 0.4
27/12:30am 8.2 5.7 8.1 99 0.0 NW 11 17 6 9 1008.1 1008.1 0.4
27/12:00am 8.3 6.2 8.2 99 0.0 NW 9 15 5 8 1008.2 1008.2 0.2
 
Date/Time
EST
Temp
°C
App
Temp
°C
Dew
Point
Rel
Hum
%
Delta-T
°C
Wind Press
QNH
hPa
Press
MSL
hPa
Rain
since 9 am
mm
Dir
 
Spd
km/h
Gust
km/h
Spd
kts
Gust
kts
26/11:30pm 9.1 7.2 9.0 99 0.0 NW 9 13 5 7 1008.2 1008.2 0.2
26/11:00pm 10.1 8.2 9.2 94 0.4 NW 9 15 5 8 1008.3 1008.3 0.2
26/10:30pm 9.6 8.2 8.8 95 0.4 WNW 6 9 3 5 1008.4 1008.4 0.0
26/10:00pm 9.9 8.0 9.0 94 0.4 NW 9 17 5 9 1008.4 1008.4 0.0
26/09:30pm 10.2 7.7 8.1 87 1.0 NNW 11 17 6 9 1008.3 1008.3 0.0
26/09:00pm 11.5 8.7 7.0 74 2.2 WNW 11 17 6 9 1008.1 1008.1 0.0
26/08:30pm 13.0 8.9 7.9 71 2.5 SW 19 26 10 14 1007.9 1007.9 0.0
26/08:00pm 12.7 8.5 7.4 70 2.6 SW 19 24 10 13 1007.9 1007.9 0.0
26/07:30pm 12.9 8.7 7.6 70 2.6 SW 19 26 10 14 1007.8 1007.8 0.0
26/07:00pm 12.3 8.5 7.6 73 2.3 SW 17 22 9 12 1007.6 1007.6 0.0
26/06:30pm 13.0 8.4 8.1 72 2.4 SW 22 30 12 16 1007.4 1007.4 0.0
26/06:00pm 12.8 8.5 7.7 71 2.5 SW 20 28 11 15 1007.1 1007.1 0.0
26/05:30pm 12.8 7.9 6.8 67 2.9 SW 22 32 12 17 1006.7 1006.7 0.0
26/05:00pm 12.9 8.0 7.1 68 2.8 SW 22 30 12 16 1006.5 1006.5 0.0
26/04:30pm 12.3 7.2 7.6 73 2.3 SW 24 37 13 20 1006.4 1006.4 0.0
26/04:00pm 13.3 7.7 7.3 67 2.9 SW 26 32 14 17 1006.2 1006.2 0.0
26/03:30pm 13.4 7.5 7.6 68 2.8 SW 28 37 15 20 1006.0 1006.0 0.0
26/03:00pm 14.1 8.9 8.7 70 2.7 SW 26 33 14 18 1005.8 1005.8 0.0
26/02:30pm 14.0 8.7 8.4 69 2.8 SW 26 33 14 18 1005.6 1005.6 0.0
26/02:00pm 14.0 8.6 8.0 67 3.0 SW 26 33 14 18 1005.6 1005.6 0.0
26/01:30pm 13.9 8.4 7.7 66 3.1 SW 26 35 14 19 1005.4 1005.4 0.0
26/01:00pm 13.5 7.6 7.7 68 2.9 SW 28 37 15 20 1005.6 1005.6 0.0
26/12:30pm 14.6 9.5 9.2 70 2.8 SW 26 37 14 20 1005.4 1005.4 0.0
26/12:00pm 13.8 8.0 8.0 68 2.9 SW 28 37 15 20 1005.5 1005.5 0.0
26/11:30am 14.1 8.4 9.9 76 2.2 SW 30 37 16 20 1005.6 1005.6 0.0
26/11:00am 13.7 9.1 9.6 76 2.1 SW 24 35 13 19 1005.6 1005.6 0.0
26/10:30am 13.3 7.8 9.0 75 2.2 SSW 28 37 15 20 1005.6 1005.6 0.0
26/10:00am 13.6 8.7 10.0 79 1.9 SW 26 33 14 18 1005.4 1005.4 0.0
26/09:30am 13.5 8.5 9.6 77 2.0 SW 26 35 14 19 1005.2 1005.2 0.0
26/09:00am 13.4 9.5 9.3 76 2.1 SSW 20 30 11 16 1005.0 1005.0 11.4
26/08:30am 13.1 9.4 9.5 79 1.8 SSW 19 26 10 14 1004.7 1004.7 11.4
26/08:00am 12.1 9.5 10.7 91 0.7 SSW 15 22 8 12 1004.6 1004.6 11.4
26/07:30am 11.5 6.5 11.0 97 0.3 SSW 28 43 15 23 1004.6 1004.6 11.4
26/07:00am 13.4 10.3 10.4 82 1.6 SSW 17 26 9 14 1004.1 1004.1 11.0
26/06:30am 12.8 9.1 10.2 84 1.3 SSW 20 30 11 16 1004.1 1004.1 11.0
26/06:00am 12.9 9.4 10.1 83 1.4 S 19 28 10 15 1003.9 1003.9 11.0
26/05:30am 12.9 9.5 11.3 90 0.8 S 20 28 11 15 1003.9 1003.9 11.0
26/05:00am 12.2 8.9 10.8 91 0.7 S 19 26 10 14 1003.8 1003.8 10.8
26/04:30am 12.1 11.0 12.1 100 0.0 SSW 9 20 5 11 1003.5 1003.5 10.8
26/04:00am 11.1 11.1 11.1 100 0.0 NNW 2 4 1 2 1003.7 1003.7 10.8
26/03:30am 11.0 10.2 11.0 100 0.0 NW 6 11 3 6 1003.9 1003.9 10.6
26/03:00am 10.9 10.1 10.9 100 0.0 NW 6 9 3 5 1004.1 1004.1 10.4
26/02:30am 10.9 9.9 10.9 100 0.0 NW 7 9 4 5 1004.0 1004.0 10.2
26/02:00am 10.9 9.9 10.9 100 0.0 NNW 7 11 4 6 1004.4 1004.4 10.2
26/01:30am 10.9 9.1 10.9 100 0.0 NNW 11 17 6 9 1004.5 1004.5 10.2
26/01:00am 10.9 9.5 10.9 100 0.0 NNW 9 15 5 8 1004.8 1004.8 10.0
26/12:30am 10.9 9.9 10.9 100 0.0 NNW 7 9 4 5 1004.8 1004.8 9.2
26/12:00am 10.8 9.9 10.8 100 0.0 NNW 6 9 3 5 1005.0 1005.0 9.2
 
Date/Time
EST
Temp
°C
App
Temp
°C
Dew
Point
Rel
Hum
%
Delta-T
°C
Wind Press
QNH
hPa
Press
MSL
hPa
Rain
since 9 am
mm
Dir
 
Spd
km/h
Gust
km/h
Spd
kts
Gust
kts
25/11:30pm 10.8 9.7 10.8 100 0.0 NNW 7 13 4 7 1005.4 1005.4 9.0
25/11:00pm 10.9 9.5 10.9 100 0.0 NNW 9 17 5 9 1005.8 1005.8 8.6
25/10:30pm 10.9 10.1 10.9 100 0.0 NNW 6 9 3 5 1006.1 1006.1 7.8
25/10:00pm 10.9 9.9 10.9 100 0.0 NNW 7 15 4 8 1006.1 1006.1 7.8
25/09:30pm 10.9 9.1 10.9 100 0.0 N 11 17 6 9 1006.0 1006.0 7.6
25/09:00pm 10.9 9.1 10.9 100 0.0 N 11 20 6 11 1006.1 1006.1 7.4
25/08:30pm 11.0 8.9 11.0 100 0.0 N 13 19 7 10 1006.0 1006.0 7.0
25/08:00pm 11.0 8.5 11.0 100 0.0 N 15 24 8 13 1005.8 1005.8 7.0
25/07:30pm 10.9 8.0 10.9 100 0.0 N 17 24 9 13 1006.0 1006.0 7.0
25/07:00pm 10.9 8.0 10.9 100 0.0 N 17 24 9 13 1005.9 1005.9 5.6
25/06:30pm 10.9 8.4 10.9 100 0.0 N 15 22 8 12 1006.1 1006.1 4.4
25/06:00pm 11.0 8.5 11.0 100 0.0 N 15 20 8 11 1006.1 1006.1 3.2
25/05:30pm 11.1 9.4 11.1 100 0.0 N 11 17 6 9 1006.3 1006.3 2.0
25/05:00pm 11.4 9.7 11.2 99 0.1 NNW 11 20 6 11 1006.5 1006.5 1.4
25/04:30pm 11.5 9.4 11.3 99 0.1 NNW 13 19 7 10 1006.5 1006.5 1.2
25/04:00pm 11.4 9.3 11.2 99 0.1 N 13 20 7 11 1006.3 1006.3 1.2
25/03:30pm 11.1 8.2 10.9 99 0.1 NNW 17 26 9 14 1006.4 1006.4 1.0
25/03:00pm 11.1 8.2 10.9 99 0.1 N 17 28 9 15 1006.5 1006.5 1.0
25/02:30pm 11.0 7.5 10.8 99 0.1 N 20 32 11 17 1006.7 1006.7 0.8
25/02:00pm 10.7 7.1 10.5 99 0.1 N 20 32 11 17 1006.9 1006.9 0.4
25/01:30pm 10.9 7.3 10.7 99 0.1 NNW 20 33 11 18 1007.5 1007.5 0.2
25/01:00pm 11.8 7.2 9.5 86 1.2 N 24 39 13 21 1007.5 1007.5 0.0
25/12:30pm 12.3 8.6 9.5 83 1.4 N 19 28 10 15 1008.0 1008.0 0.0
25/12:00pm 12.3 7.4 8.6 78 1.8 NNW 24 43 13 23 1008.6 1008.6 0.0
25/11:30am 11.9 7.1 8.7 81 1.6 NNW 24 35 13 19 1009.0 1009.0 0.0
25/11:00am 13.4 8.7 7.6 68 2.8 NNW 22 41 12 22 1009.3 1009.3 0.0
25/10:30am 13.2 8.7 7.0 66 3.0 N 20 32 11 17 1009.5 1009.5 0.0
25/10:00am 13.1 8.9 7.3 68 2.8 N 19 30 10 16 1009.4 1009.4 0.0
25/09:30am 12.8 8.9 7.3 69 2.7 N 17 24 9 13 1010.1 1010.1 0.0
25/09:00am 12.5 8.6 7.0 69 2.6 N 17 24 9 13 1010.3 1010.3 0.0
25/08:30am 12.4 8.0 7.3 71 2.5 N 20 30 11 16 1010.2 1010.2 0.0
25/08:00am 12.1 8.3 7.4 73 2.3 N 17 28 9 15 1010.5 1010.5 0.0
25/07:30am 12.0 8.6 7.5 74 2.2 N 15 24 8 13 1011.0 1011.0 0.0
25/07:00am 12.1 7.8 7.8 75 2.1 N 20 30 11 16 1011.1 1011.1 0.0
25/06:30am 11.9 7.9 8.2 78 1.8 N 19 28 10 15 1011.3 1011.3 0.0
25/06:00am 11.6 8.5 9.0 84 1.3 N 15 24 8 13 1011.6 1011.6 0.0
25/05:30am 11.3 9.1 9.4 88 1.0 NNE 11 19 6 10 1011.9 1011.9 0.0
25/05:00am 11.4 9.0 10.0 91 0.7 NNE 13 20 7 11 1012.4 1012.4 0.0
25/04:30am 11.5 9.6 10.4 93 0.6 N 11 17 6 9 1012.8 1012.8 0.0
25/04:00am 11.3 9.4 10.4 94 0.5 NNE 11 17 6 9 1012.6 1012.6 0.0
25/03:30am 11.3 9.4 10.5 95 0.4 NNE 11 15 6 8 1013.0 1013.0 0.0
25/03:00am 11.5 9.6 10.4 93 0.6 NNE 11 13 6 7 1013.7 1013.7 0.0
25/02:30am 11.7 9.9 10.8 94 0.5 N 11 17 6 9 1014.1 1014.1 0.0
25/02:00am 11.3 9.1 10.8 97 0.3 NNE 13 20 7 11 1014.3 1014.3 0.0
25/01:30am 10.9 8.9 10.3 96 0.3 N 11 15 6 8 1015.0 1015.0 0.0
25/01:00am 11.1 9.3 10.8 98 0.2 N 11 17 6 9 1015.4 1015.4 0.0
25/12:30am 10.7 9.2 10.5 99 0.1 NNE 9 15 5 8 1015.9 1015.9 0.0
25/12:00am 10.8 9.3 10.6 99 0.1 N 9 15 5 8 1016.2 1016.2 0.0
 
Date/Time
EST
Temp
°C
App
Temp
°C
Dew
Point
Rel
Hum
%
Delta-T
°C
Wind Press
QNH
hPa
Press
MSL
hPa
Rain
since 9 am
mm
Dir
 
Spd
km/h
Gust
km/h
Spd
kts
Gust
kts
24/11:30pm 10.9 9.1 10.7 99 0.1 N 11 17 6 9 1016.4 1016.4 0.0
24/11:00pm 10.7 9.2 10.5 99 0.1 N 9 13 5 7 1016.8 1016.8 0.0
24/10:30pm 11.0 9.5 10.5 97 0.3 NNE 9 15 5 8 1016.9 1016.9 0.0
24/10:00pm 11.1 10.0 10.6 97 0.3 NNE 7 11 4 6 1017.3 1017.3 0.0
24/09:30pm 11.4 10.0 10.8 96 0.3 N 9 13 5 7 1017.7 1017.7 0.0
24/09:00pm 11.6 10.1 10.7 94 0.5 NNE 9 15 5 8 1017.6 1017.6 0.0
24/08:30pm 11.9 10.5 11.0 94 0.5 NNE 9 15 5 8 1017.9 1017.9 0.0

Other Formats:

Comma delimited format used in spreadsheet applications
http://www.bom.gov.au/fwo/IDV60801/IDV60801.94830.axf

JavaScript Object Notation format (JSON) in row-major order
http://www.bom.gov.au/fwo/IDV60801/IDV60801.94830.json